Terminal Aerodrome Forecast
Issued by NWS Shreveport, LA

Home | Current Version | Previous Version | Text Only | Print | Product List | Glossary On
Versions: 1 2 3 4 5 6 7 8 9 10 11 12 13 14 15 16 17 18 19 20 21 22
191
FTUS44 KSHV 301743
TAFLFK
TAF
KLFK 301743Z 3018/0118 15004KT P6SM SCT100
     FM010600 35004KT P6SM BKN020
      TEMPO 0109/0113 4SM BR OVC010
     FM011500 07006KT P6SM SCT025=

USA.gov is the U.S. government's official web portal to all federal, state and local government web resources and services.